Time;durP1;ratioP1;P1;durP2;ratioP2;P2;SDS_P1;SDS_P2;PMS_P1;PMS_P2;Temp;Humidity;BMP_temperature;BMP_pressure;BME280_temperature;BME280_humidity;BME280_pressure;Samples;Min_cycle;Max_cycle;Signal;HPM_P1;HPM_P2
2023/05/02 00:00:20;;;;;;;7.03;5.20;;;10.70;99.90;;;;;;5072755;28;20614;-85
2023/05/02 00:02:45;;;;;;;6.30;5.70;;;10.70;99.90;;;;;;5072854;28;20246;-86
2023/05/02 00:05:11;;;;;;;5.93;5.33;;;10.70;99.90;;;;;;5072829;28;20170;-85
2023/05/02 00:07:36;;;;;;;6.73;5.63;;;10.70;99.90;;;;;;5071503;28;20253;-85
2023/05/02 00:10:02;;;;;;;6.03;5.43;;;10.70;99.90;;;;;;5072641;28;20185;-85
2023/05/02 00:12:28;;;;;;;7.90;5.67;;;10.70;99.90;;;;;;5072764;28;20193;-85
2023/05/02 00:14:53;;;;;;;6.90;5.77;;;10.60;99.90;;;;;;5071456;28;20203;-85
2023/05/02 00:17:19;;;;;;;6.80;5.87;;;10.70;99.90;;;;;;5072478;28;20207;-85
2023/05/02 00:19:45;;;;;;;6.33;5.70;;;10.60;99.90;;;;;;5072365;28;20197;-85
2023/05/02 00:22:11;;;;;;;7.63;6.20;;;10.70;99.90;;;;;;5071110;28;20189;-85
2023/05/02 00:24:36;;;;;;;5.77;5.20;;;10.70;99.90;;;;;;5072690;28;20168;-85
2023/05/02 00:27:02;;;;;;;6.33;5.27;;;10.70;99.90;;;;;;5072409;28;20169;-86
2023/05/02 00:29:28;;;;;;;6.97;5.20;;;10.70;99.90;;;;;;5072471;28;20174;-85
2023/05/02 00:31:54;;;;;;;6.40;5.80;;;10.60;99.90;;;;;;5070985;28;20176;-85
2023/05/02 00:34:19;;;;;;;6.20;5.57;;;10.50;99.90;;;;;;5072256;28;20187;-85
2023/05/02 00:36:45;;;;;;;6.10;5.50;;;10.40;99.90;;;;;;5071278;28;20177;-85
2023/05/02 00:39:10;;;;;;;6.27;5.37;;;10.40;99.90;;;;;;5072480;28;20253;-86
2023/05/02 00:41:36;;;;;;;5.93;5.33;;;10.40;99.90;;;;;;5072159;28;20217;-84
2023/05/02 00:44:02;;;;;;;7.90;5.70;;;10.30;99.90;;;;;;5070847;28;20228;-85
2023/05/02 00:46:28;;;;;;;5.97;5.37;;;10.30;99.90;;;;;;5072076;28;20632;-85
2023/05/02 00:48:53;;;;;;;6.20;5.60;;;10.30;99.90;;;;;;5072407;28;20180;-85
2023/05/02 00:51:19;;;;;;;6.40;5.80;;;10.20;99.90;;;;;;5087560;28;20177;-86
2023/05/02 00:53:45;;;;;;;6.57;5.97;;;10.10;99.90;;;;;;5072062;28;20181;-85
2023/05/02 00:56:10;;;;;;;6.80;6.10;;;10.10;99.90;;;;;;5072723;28;20188;-85
2023/05/02 00:58:39;;;;;;;7.57;5.80;;;10.10;99.90;;;;;;5072162;28;20177;-84
2023/05/02 01:01:38;;;;;;;8.37;6.20;;;10.20;99.90;;;;;;5071891;28;20189;-84
2023/05/02 01:04:53;;;;;;;6.17;5.57;;;10.30;99.90;;;;;;5072119;28;20337;-85
2023/05/02 01:07:27;;;;;;;6.17;5.57;;;10.20;99.90;;;;;;5070722;28;20181;-85
2023/05/02 01:10:20;;;;;;;6.23;5.60;;;10.30;99.90;;;;;;5070372;28;20175;-83
2023/05/02 01:12:53;;;;;;;7.53;6.03;;;10.20;99.90;;;;;;5070585;28;20199;-85
2023/05/02 01:15:22;;;;;;;6.53;5.83;;;10.20;99.90;;;;;;5072493;28;20610;-84
2023/05/02 01:17:49;;;;;;;6.57;5.97;;;10.20;99.90;;;;;;5072685;28;20180;-84
2023/05/02 01:20:19;;;;;;;6.90;6.17;;;10.20;99.90;;;;;;5061118;28;20205;-84
2023/05/02 01:22:46;;;;;;;6.53;5.93;;;10.20;99.90;;;;;;5057590;28;20288;-85
2023/05/02 01:25:12;;;;;;;6.27;5.67;;;10.20;99.90;;;;;;5053372;28;20182;-85
2023/05/02 01:27:52;;;;;;;6.57;5.87;;;10.10;99.90;;;;;;5030985;28;20170;-84
2023/05/02 01:30:20;;;;;;;6.80;5.53;;;10.20;99.90;;;;;;5034962;28;20167;-85
2023/05/02 01:32:48;;;;;;;7.30;5.53;;;10.20;99.90;;;;;;5036170;28;20194;-85
2023/05/02 01:35:15;;;;;;;5.80;5.30;;;10.20;99.90;;;;;;5035264;28;20178;-85
2023/05/02 01:37:43;;;;;;;6.83;5.83;;;10.10;99.90;;;;;;5051923;28;20187;-85
2023/05/02 01:40:10;;;;;;;6.00;5.40;;;10.10;99.90;;;;;;5051151;28;20748;-85
2023/05/02 01:42:38;;;;;;;6.17;5.57;;;10.20;99.90;;;;;;5051788;28;20194;-85
2023/05/02 01:45:06;;;;;;;6.90;6.20;;;10.20;99.90;;;;;;5051410;28;20174;-84
2023/05/02 01:47:33;;;;;;;6.67;5.73;;;10.10;99.90;;;;;;5036234;28;20190;-85
2023/05/02 01:50:02;;;;;;;5.80;5.30;;;10.00;99.90;;;;;;5036112;28;20278;-84
2023/05/02 01:52:29;;;;;;;5.90;5.30;;;10.00;99.90;;;;;;5035653;28;20209;-84
2023/05/02 01:54:58;;;;;;;6.30;5.63;;;10.00;99.90;;;;;;5040228;28;20181;-85
2023/05/02 01:57:23;;;;;;;6.17;5.57;;;9.90;99.90;;;;;;5054683;28;20235;-85
2023/05/02 01:59:50;;;;;;;5.97;5.27;;;9.90;99.90;;;;;;5063060;28;20291;-85
2023/05/02 02:02:17;;;;;;;7.07;5.87;;;10.00;99.90;;;;;;5075445;28;20718;-85
2023/05/02 02:04:44;;;;;;;6.90;5.53;;;9.90;99.90;;;;;;5074375;28;20169;-84
2023/05/02 02:07:12;;;;;;;6.03;5.43;;;9.90;99.90;;;;;;5074481;28;20208;-84
2023/05/02 02:09:39;;;;;;;6.20;5.60;;;10.00;99.90;;;;;;5074472;28;20636;-84
2023/05/02 02:12:07;;;;;;;8.83;6.50;;;9.90;99.90;;;;;;5074262;28;20188;-85
2023/05/02 02:14:36;;;;;;;6.10;5.50;;;10.10;99.90;;;;;;5075784;28;20177;-84
2023/05/02 02:17:10;;;;;;;6.90;5.47;;;10.10;99.90;;;;;;5075336;28;20581;-84
2023/05/02 02:19:39;;;;;;;6.57;5.67;;;10.20;99.90;;;;;;5074155;28;20241;-81
2023/05/02 02:22:07;;;;;;;6.93;5.47;;;10.20;99.90;;;;;;5075025;28;20655;-84
2023/05/02 02:24:36;;;;;;;6.00;5.27;;;10.20;99.90;;;;;;5075384;28;20176;-85
2023/05/02 02:27:02;;;;;;;5.90;5.40;;;10.10;99.90;;;;;;5075462;28;20173;-84
2023/05/02 02:29:28;;;;;;;6.33;5.53;;;10.10;99.90;;;;;;5075354;28;20176;-83
2023/05/02 02:31:53;;;;;;;6.40;5.30;;;10.00;99.90;;;;;;5073981;28;20177;-85
2023/05/02 02:34:20;;;;;;;6.43;5.10;;;10.00;99.90;;;;;;5074192;28;20181;-84
2023/05/02 02:37:15;;;;;;;5.43;4.90;;;10.10;99.90;;;;;;5075286;28;20181;-84
2023/05/02 02:39:46;;;;;;;5.50;5.00;;;10.00;99.90;;;;;;5070808;28;20206;-84
2023/05/02 02:42:21;;;;;;;5.30;4.80;;;9.90;99.90;;;;;;5054970;28;20213;-84
2023/05/02 02:44:59;;;;;;;5.80;5.20;;;9.90;99.90;;;;;;5054953;28;20160;-85
2023/05/02 02:47:28;;;;;;;5.43;4.93;;;9.90;99.90;;;;;;5053590;28;20265;-85
2023/05/02 02:50:31;;;;;;;5.20;4.70;;;9.80;99.90;;;;;;5054787;28;20188;-82
2023/05/02 02:53:04;;;;;;;6.23;4.63;;;9.80;99.90;;;;;;5012881;28;20203;-84
2023/05/02 02:55:45;;;;;;;5.33;4.40;;;9.80;99.90;;;;;;5061628;28;20709;-84
2023/05/02 02:58:44;;;;;;;8.17;5.13;;;9.80;99.90;;;;;;5054660;28;20158;-85
2023/05/02 03:01:19;;;;;;;5.53;4.50;;;9.80;99.90;;;;;;5054512;28;20158;-85
2023/05/02 03:03:46;;;;;;;5.33;4.83;;;9.70;99.90;;;;;;5054625;28;20219;-85
2023/05/02 03:06:11;;;;;;;5.20;4.67;;;9.80;99.90;;;;;;5053285;28;20204;-85
2023/05/02 03:08:39;;;;;;;5.60;5.07;;;9.80;99.90;;;;;;5054706;28;20182;-85
2023/05/02 03:11:04;;;;;;;4.50;4.10;;;9.80;99.90;;;;;;5053238;28;20267;-85
2023/05/02 03:13:30;;;;;;;5.20;4.63;;;9.90;99.90;;;;;;5053380;28;20225;-85
2023/05/02 03:16:10;;;;;;;4.73;4.20;;;9.70;99.90;;;;;;5053325;28;20166;-84
2023/05/02 03:18:36;;;;;;;5.47;4.53;;;9.70;99.90;;;;;;5054355;28;20156;-84
2023/05/02 03:21:02;;;;;;;5.57;4.70;;;9.70;99.90;;;;;;5053736;28;20564;-84
2023/05/02 03:23:27;;;;;;;6.53;4.50;;;9.60;99.90;;;;;;5053144;28;20189;-85
2023/05/02 03:25:53;;;;;;;6.10;4.70;;;9.60;99.90;;;;;;5052915;28;20220;-85
2023/05/02 03:28:19;;;;;;;5.33;4.10;;;9.60;99.90;;;;;;5052858;28;20188;-84
2023/05/02 03:30:44;;;;;;;4.80;4.30;;;9.40;99.90;;;;;;5054153;28;20173;-84
2023/05/02 03:33:10;;;;;;;4.73;3.87;;;9.40;99.90;;;;;;5052611;28;20199;-85
2023/05/02 03:35:35;;;;;;;4.50;4.10;;;9.30;99.90;;;;;;5053049;28;20177;-85
2023/05/02 03:38:01;;;;;;;5.53;4.57;;;9.20;99.90;;;;;;5054095;28;20252;-85
2023/05/02 03:40:27;;;;;;;4.53;4.10;;;9.20;99.90;;;;;;5053661;28;20355;-83
2023/05/02 03:42:52;;;;;;;5.90;4.10;;;9.30;99.90;;;;;;5053909;28;20251;-85
2023/05/02 03:45:18;;;;;;;4.40;4.00;;;9.20;99.90;;;;;;5053881;28;20176;-85
2023/05/02 03:47:43;;;;;;;4.83;4.33;;;9.10;99.90;;;;;;5052766;28;20264;-85
2023/05/02 03:50:09;;;;;;;5.30;4.27;;;9.20;99.90;;;;;;5048440;28;20186;-84
2023/05/02 03:52:35;;;;;;;4.87;4.13;;;9.20;99.90;;;;;;5031696;28;20201;-84
2023/05/02 03:55:01;;;;;;;4.70;4.20;;;9.20;99.90;;;;;;5033689;28;20174;-85
2023/05/02 03:57:29;;;;;;;4.27;3.77;;;9.20;99.90;;;;;;5033805;28;20177;-84
2023/05/02 03:59:55;;;;;;;4.13;3.73;;;9.10;99.90;;;;;;5033358;28;20212;-85
2023/05/02 04:02:20;;;;;;;5.20;4.03;;;9.20;99.90;;;;;;5069686;28;20212;-85
2023/05/02 04:04:46;;;;;;;4.47;3.90;;;9.20;99.90;;;;;;5073602;28;20519;-84
2023/05/02 04:07:17;;;;;;;5.30;4.57;;;9.20;99.90;;;;;;5072056;28;20251;-85
2023/05/02 04:09:43;;;;;;;4.73;4.20;;;9.20;99.90;;;;;;5071957;28;20161;-85
2023/05/02 04:12:08;;;;;;;4.90;3.50;;;9.20;99.90;;;;;;5071867;28;20210;-84
2023/05/02 04:14:34;;;;;;;7.83;4.17;;;9.30;99.90;;;;;;5073338;28;20177;-85
2023/05/02 04:16:59;;;;;;;5.33;3.70;;;9.20;99.90;;;;;;5071989;28;20234;-85
2023/05/02 04:19:25;;;;;;;4.17;3.83;;;9.10;99.90;;;;;;5071587;28;20204;-85
2023/05/02 04:21:50;;;;;;;4.60;4.17;;;9.10;99.90;;;;;;5066437;28;20174;-84
2023/05/02 04:24:16;;;;;;;5.00;4.50;;;9.00;99.90;;;;;;5052915;28;20229;-84
2023/05/02 04:26:41;;;;;;;4.50;4.10;;;9.00;99.90;;;;;;5052923;28;20222;-85
2023/05/02 04:29:07;;;;;;;4.73;4.23;;;8.90;99.90;;;;;;5051970;28;20178;-84
2023/05/02 04:31:33;;;;;;;6.13;4.70;;;8.90;99.90;;;;;;5051513;28;20207;-84
2023/05/02 04:33:58;;;;;;;5.17;4.67;;;8.90;99.90;;;;;;5051715;28;20196;-84
2023/05/02 04:36:27;;;;;;;4.87;3.90;;;9.00;99.90;;;;;;5052730;28;20205;-84
2023/05/02 04:38:53;;;;;;;4.93;4.10;;;9.00;99.90;;;;;;5052755;28;20198;-84
2023/05/02 04:41:19;;;;;;;4.63;4.00;;;9.00;99.90;;;;;;5051637;28;20220;-82
2023/05/02 04:43:45;;;;;;;4.97;4.33;;;9.00;99.90;;;;;;5053489;28;20197;-82
2023/05/02 04:46:10;;;;;;;4.67;4.10;;;9.00;99.90;;;;;;5051863;28;20267;-82
2023/05/02 04:48:40;;;;;;;4.30;3.90;;;9.10;99.90;;;;;;5053249;28;20196;-82
2023/05/02 04:51:07;;;;;;;4.60;4.20;;;9.10;99.90;;;;;;5051862;28;20264;-82
2023/05/02 04:53:32;;;;;;;4.50;4.10;;;9.20;99.90;;;;;;5052935;28;20196;-82
2023/05/02 04:55:58;;;;;;;4.40;4.00;;;9.30;99.90;;;;;;5051851;28;20663;-81
2023/05/02 04:58:23;;;;;;;4.97;4.23;;;9.30;99.90;;;;;;5060779;28;20185;-81
2023/05/02 05:00:49;;;;;;;4.97;4.50;;;9.40;99.90;;;;;;5066596;28;20331;-82
2023/05/02 05:03:14;;;;;;;5.37;4.70;;;9.40;99.90;;;;;;5134783;22;20246;-83
2023/05/02 05:05:40;;;;;;;8.37;4.90;;;9.50;99.90;;;;;;5127362;28;20233;-83
2023/05/02 05:08:06;;;;;;;5.33;4.60;;;9.50;99.90;;;;;;5117986;28;20184;-84
2023/05/02 05:10:32;;;;;;;6.23;5.37;;;9.50;99.90;;;;;;5114718;28;20273;-85
2023/05/02 05:12:57;;;;;;;6.80;5.20;;;9.60;99.90;;;;;;5113939;28;20234;-83
2023/05/02 05:15:24;;;;;;;6.10;5.17;;;9.80;99.90;;;;;;5116227;28;20172;-83
2023/05/02 05:17:50;;;;;;;5.57;5.00;;;9.90;99.90;;;;;;5114712;28;20212;-83
2023/05/02 05:20:16;;;;;;;5.00;4.50;;;9.90;99.90;;;;;;5101180;28;20195;-83
2023/05/02 05:22:41;;;;;;;4.60;4.20;;;10.00;99.90;;;;;;5095051;28;20249;-83
2023/05/02 05:25:08;;;;;;;5.80;4.50;;;10.00;99.90;;;;;;5089066;28;20165;-83
2023/05/02 05:27:34;;;;;;;5.27;4.57;;;10.10;99.90;;;;;;5091975;28;20172;-81
2023/05/02 05:30:00;;;;;;;6.00;4.67;;;10.20;99.90;;;;;;5089618;28;20168;-83
2023/05/02 05:32:26;;;;;;;5.23;4.70;;;10.20;99.90;;;;;;5116464;28;20168;-84
2023/05/02 05:34:52;;;;;;;5.40;4.90;;;10.20;99.90;;;;;;5117907;28;20203;-80
2023/05/02 05:37:18;;;;;;;4.47;4.07;;;10.20;99.90;;;;;;5117355;28;20176;-80
2023/05/02 05:39:44;;;;;;;4.10;3.60;;;10.50;99.90;;;;;;5114664;28;20192;-79
2023/05/02 05:42:11;;;;;;;4.20;3.80;;;10.80;99.90;;;;;;5112628;28;20164;-77
2023/05/02 05:44:36;;;;;;;4.63;4.20;;;11.20;99.90;;;;;;5115626;28;20244;-77
2023/05/02 05:47:02;;;;;;;5.10;4.60;;;11.50;99.90;;;;;;5116248;28;20274;-78
2023/05/02 05:49:28;;;;;;;5.30;4.80;;;11.70;99.90;;;;;;5114354;28;20180;-79
2023/05/02 05:51:53;;;;;;;5.77;5.17;;;11.60;99.90;;;;;;5114071;28;20189;-77
2023/05/02 05:54:19;;;;;;;5.67;5.03;;;11.40;99.90;;;;;;5113762;28;20192;-76
2023/05/02 05:56:45;;;;;;;5.60;5.10;;;11.20;99.90;;;;;;5115602;28;20180;-78
2023/05/02 05:59:11;;;;;;;6.93;5.60;;;11.20;99.90;;;;;;5115680;28;20196;-79
2023/05/02 06:01:37;;;;;;;6.30;5.30;;;11.20;99.90;;;;;;5113396;28;20191;-78
2023/05/02 06:04:03;;;;;;;5.63;5.13;;;11.20;99.90;;;;;;5112194;28;20215;-80
2023/05/02 06:06:30;;;;;;;5.80;5.20;;;11.10;99.90;;;;;;5114534;28;20176;-81
2023/05/02 06:08:56;;;;;;;7.43;5.80;;;11.10;99.90;;;;;;5116690;28;20181;-81
2023/05/02 06:11:23;;;;;;;7.40;6.70;;;11.10;99.90;;;;;;5115247;28;20168;-81
2023/05/02 06:13:52;;;;;;;7.77;6.97;;;11.10;99.90;;;;;;5115286;28;20188;-81
2023/05/02 06:16:18;;;;;;;7.63;6.83;;;11.10;99.90;;;;;;5123063;28;20182;-81
2023/05/02 06:18:44;;;;;;;7.83;6.87;;;11.20;99.90;;;;;;5118500;28;20211;-81
2023/05/02 06:21:09;;;;;;;8.00;6.60;;;11.20;99.90;;;;;;5119058;28;20197;-81
2023/05/02 06:23:35;;;;;;;8.37;6.70;;;11.30;99.90;;;;;;5103404;28;20228;-81
2023/05/02 06:26:02;;;;;;;7.70;7.00;;;11.40;99.90;;;;;;5100707;28;20168;-82
2023/05/02 06:28:28;;;;;;;7.63;6.90;;;11.40;99.90;;;;;;5098374;28;20213;-80
2023/05/02 06:31:02;;;;;;;8.00;7.20;;;11.50;99.90;;;;;;5098427;28;20172;-81
2023/05/02 06:33:28;;;;;;;10.63;7.67;;;11.50;99.90;;;;;;5098558;28;20728;-81
2023/05/02 06:35:54;;;;;;;8.80;7.90;;;11.60;99.90;;;;;;5100829;28;20196;-82
2023/05/02 06:38:20;;;;;;;10.67;8.27;;;11.70;99.90;;;;;;5100620;28;20222;-81
2023/05/02 06:40:46;;;;;;;11.57;8.80;;;11.70;99.90;;;;;;5098568;28;20219;-81
2023/05/02 06:43:12;;;;;;;9.57;8.47;;;11.80;99.90;;;;;;5098953;28;20195;-81
2023/05/02 06:45:39;;;;;;;10.70;9.60;;;11.90;99.90;;;;;;5100647;28;20168;-81
2023/05/02 06:48:05;;;;;;;11.60;9.10;;;11.90;99.90;;;;;;5101008;28;20168;-81
2023/05/02 06:50:30;;;;;;;10.37;9.00;;;12.00;76.90;;;;;;5099182;28;20181;-81
2023/05/02 06:52:56;;;;;;;10.47;9.07;;;12.10;99.90;;;;;;5099692;28;20569;-83
2023/05/02 06:55:21;;;;;;;10.90;9.60;;;12.10;1.00;;;;;;5101251;28;20269;-81
2023/05/02 06:57:51;;;;;;;12.03;9.70;;;12.10;1.00;;;;;;5099271;28;20172;-81
2023/05/02 07:00:18;;;;;;;11.00;9.67;;;12.20;1.00;;;;;;5100806;28;20199;-81
2023/05/02 07:02:45;;;;;;;14.03;10.27;;;12.30;1.00;;;;;;5099219;28;20208;-81
2023/05/02 07:05:11;;;;;;;11.70;10.13;;;12.30;1.00;;;;;;5098583;28;20178;-83
2023/05/02 07:07:37;;;;;;;12.03;10.47;;;12.30;1.00;;;;;;5103634;28;20168;-83
2023/05/02 07:10:03;;;;;;;12.43;10.47;;;12.30;1.00;;;;;;5104181;28;20168;-83
2023/05/02 07:12:29;;;;;;;11.40;10.20;;;12.30;1.00;;;;;;5102990;28;20172;-83
2023/05/02 07:14:55;;;;;;;14.40;11.17;;;12.30;1.00;;;;;;5103903;28;20176;-82
2023/05/02 07:17:20;;;;;;;12.37;10.70;;;12.30;1.00;;;;;;5104293;28;20176;-83
2023/05/02 07:19:46;;;;;;;14.63;11.77;;;12.30;1.00;;;;;;5102548;28;20193;-82
2023/05/02 07:22:11;;;;;;;14.87;12.17;;;12.30;1.00;;;;;;5099537;28;20651;-82
2023/05/02 07:24:41;;;;;;;14.50;11.47;;;12.40;1.00;;;;;;5082795;28;20193;-82
2023/05/02 07:27:08;;;;;;;14.07;12.03;;;12.40;1.00;;;;;;5084374;28;20172;-82
2023/05/02 07:29:34;;;;;;;12.87;11.37;;;12.50;1.00;;;;;;5085028;28;20219;-83
2023/05/02 07:32:00;;;;;;;14.50;11.87;;;12.60;1.00;;;;;;5083224;28;20177;-82
2023/05/02 07:34:25;;;;;;;14.73;11.47;;;12.80;1.00;;;;;;5085958;28;20290;-83
2023/05/02 07:36:51;;;;;;;15.30;12.33;;;13.00;1.00;;;;;;5106346;28;20236;-82
2023/05/02 07:39:16;;;;;;;17.33;11.77;;;13.30;1.00;;;;;;5104700;28;20203;-82
2023/05/02 07:41:42;;;;;;;15.30;11.93;;;13.20;1.00;;;;;;5105897;28;20178;-83
2023/05/02 07:44:08;;;;;;;14.40;11.90;;;13.10;99.90;;;;;;5106341;28;20199;-82
2023/05/02 07:46:33;;;;;;;14.23;11.87;;;13.00;99.90;;;;;;5107348;28;20182;-82
2023/05/02 07:48:59;;;;;;;14.60;11.90;;;13.00;1.00;;;;;;5103878;28;20169;-80
2023/05/02 07:51:25;;;;;;;15.20;11.23;;;13.00;99.90;;;;;;5105888;28;20194;-84
2023/05/02 07:53:57;;;;;;;15.57;11.80;;;13.00;99.90;;;;;;5109149;28;20184;-82
2023/05/02 07:56:23;;;;;;;14.30;11.37;;;13.20;1.00;;;;;;5107870;28;20183;-84
2023/05/02 07:58:50;;;;;;;14.43;11.53;;;13.20;99.90;;;;;;5102765;28;20192;-83
2023/05/02 08:01:16;;;;;;;12.87;11.47;;;13.20;99.90;;;;;;5119699;28;20210;-82
2023/05/02 08:03:42;;;;;;;14.47;11.63;;;13.30;99.90;;;;;;5114025;28;20199;-81
2023/05/02 08:06:08;;;;;;;15.57;11.63;;;13.30;99.90;;;;;;5078926;28;20184;-78
2023/05/02 08:08:34;;;;;;;14.53;11.63;;;13.50;1.00;;;;;;5074449;28;20177;-80
2023/05/02 08:11:00;;;;;;;14.50;11.40;;;13.60;1.00;;;;;;5075620;28;20184;-79
2023/05/02 08:13:26;;;;;;;13.07;10.40;;;13.50;1.00;;;;;;5076247;28;20188;-79
2023/05/02 08:15:56;;;;;;;12.43;10.97;;;13.50;1.00;;;;;;5076786;28;20176;-79
2023/05/02 08:18:25;;;;;;;13.63;11.23;;;13.50;99.90;;;;;;5076291;28;20162;-79
2023/05/02 08:20:51;;;;;;;14.33;11.40;;;13.40;1.00;;;;;;5075021;28;20197;-79
2023/05/02 08:23:17;;;;;;;13.80;11.77;;;13.20;99.90;;;;;;5075003;28;20220;-79
2023/05/02 08:25:43;;;;;;;14.27;11.37;;;13.20;99.90;;;;;;5076807;28;20176;-79
2023/05/02 08:28:08;;;;;;;13.70;11.73;;;13.10;99.90;;;;;;5075510;28;20623;-79
2023/05/02 08:30:34;;;;;;;14.97;12.17;;;12.90;1.00;;;;;;5076438;28;20173;-79
2023/05/02 08:33:00;;;;;;;13.67;11.10;;;12.80;44.60;;;;;;5076355;28;20303;-80
2023/05/02 08:35:28;;;;;;;13.43;11.57;;;12.80;99.90;;;;;;5075480;28;20189;-79
2023/05/02 08:37:54;;;;;;;12.37;10.70;;;12.70;99.90;;;;;;5075846;28;20173;-82
2023/05/02 08:40:21;;;;;;;13.73;9.87;;;12.60;19.00;;;;;;5074280;28;20196;-79
2023/05/02 08:42:47;;;;;;;13.67;11.13;;;12.60;1.00;;;;;;5076121;28;20199;-80
2023/05/02 08:45:14;;;;;;;12.30;10.30;;;12.70;99.90;;;;;;5074554;28;20189;-79
2023/05/02 08:47:41;;;;;;;14.17;10.47;;;12.70;80.30;;;;;;5074940;28;20199;-80
2023/05/02 08:50:09;;;;;;;11.03;9.17;;;12.70;1.00;;;;;;5075911;28;20192;-79
2023/05/02 08:52:35;;;;;;;11.30;9.53;;;12.70;99.90;;;;;;5074536;28;20189;-80
2023/05/02 08:55:03;;;;;;;11.63;9.30;;;12.70;1.00;;;;;;5075528;28;20207;-80
2023/05/02 08:57:31;;;;;;;14.50;9.57;;;12.90;1.00;;;;;;5075975;28;20180;-79
2023/05/02 08:59:58;;;;;;;13.20;9.13;;;12.90;99.90;;;;;;5073560;28;20204;-79
2023/05/02 09:02:53;;;;;;;11.80;9.67;;;13.10;99.90;;;;;;5075145;28;20176;-78
2023/05/02 09:05:22;;;;;;;11.07;8.70;;;13.30;1.00;;;;;;5075064;28;20188;-81
2023/05/02 09:07:50;;;;;;;9.47;7.70;;;13.50;99.90;;;;;;5075612;28;20173;-79
2023/05/02 09:10:16;;;;;;;8.43;5.97;;;13.80;1.00;;;;;;5073945;28;20177;-80
2023/05/02 09:12:42;;;;;;;6.10;5.43;;;14.00;1.00;;;;;;5074042;28;20197;-81
2023/05/02 09:15:15;;;;;;;7.50;6.30;;;14.10;1.00;;;;;;5076275;28;20180;-79
2023/05/02 09:17:43;;;;;;;7.03;5.60;;;14.20;1.00;;;;;;5078533;28;20158;-80
2023/05/02 09:20:14;;;;;;;5.40;4.30;;;14.20;3.50;;;;;;5075623;28;20203;-80
2023/05/02 09:22:49;;;;;;;4.00;3.60;;;14.10;40.70;;;;;;5078392;28;20200;-78
2023/05/02 09:25:15;;;;;;;4.50;3.47;;;14.20;1.00;;;;;;5075692;28;20161;-80
2023/05/02 09:27:54;;;;;;;3.70;3.20;;;14.20;87.60;;;;;;5079046;28;20618;-81
2023/05/02 09:30:25;;;;;;;4.27;3.40;;;14.00;1.00;;;;;;5076281;28;20188;-80
2023/05/02 09:32:54;;;;;;;4.43;3.03;;;13.90;99.90;;;;;;5076885;28;20192;-82
2023/05/02 09:35:23;;;;;;;5.03;3.87;;;13.80;1.00;;;;;;5078426;28;20188;-82
2023/05/02 09:37:58;;;;;;;4.93;4.00;;;13.70;18.20;;;;;;5078741;28;20200;-84
2023/05/02 09:40:24;;;;;;;4.63;3.57;;;13.90;1.00;;;;;;5078104;28;20199;-82
2023/05/02 09:42:51;;;;;;;5.73;4.27;;;14.50;75.20;;;;;;5078172;28;20201;-81
2023/05/02 09:45:24;;;;;;;4.27;3.43;;;15.10;1.00;;;;;;5081265;28;20177;-81
2023/05/02 09:47:50;;;;;;;3.90;3.30;;;15.10;1.00;;;;;;5077865;28;20173;-81
2023/05/02 09:50:36;;;;;;;4.53;3.13;;;15.10;99.90;;;;;;5081585;28;20177;-81
2023/05/02 09:53:08;;;;;;;5.03;2.90;;;15.30;99.90;;;;;;5083551;28;20256;-80
2023/05/02 09:55:34;;;;;;;3.57;2.93;;;15.10;1.00;;;;;;5082623;28;20176;-81
2023/05/02 09:58:00;;;;;;;4.13;3.00;;;15.00;99.90;;;;;;5082286;28;20188;-81
2023/05/02 10:00:43;;;;;;;3.37;2.53;;;14.90;1.00;;;;;;5085853;28;20197;-81
2023/05/02 10:03:09;;;;;;;4.63;3.50;;;14.80;99.90;;;;;;5085868;28;20679;-81
2023/05/02 10:05:39;;;;;;;12.93;10.20;;;14.80;99.90;;;;;;5088059;28;20176;-82
2023/05/02 10:08:06;;;;;;;4.57;3.60;;;14.90;1.00;;;;;;5087433;28;20177;-81
2023/05/02 10:10:36;;;;;;;4.03;3.13;;;15.20;49.10;;;;;;5085391;28;20252;-81
2023/05/02 10:13:06;;;;;;;9.53;6.67;;;15.40;1.00;;;;;;5088639;28;20193;-81
2023/05/02 10:15:33;;;;;;;5.50;3.80;;;15.90;1.00;;;;;;5086875;28;20227;-82
2023/05/02 10:18:02;;;;;;;6.83;3.93;;;16.20;1.00;;;;;;5088688;28;20693;-81
2023/05/02 10:20:43;;;;;;;6.33;4.40;;;16.30;1.00;;;;;;5086249;28;20204;-81
2023/05/02 10:23:09;;;;;;;5.27;4.50;;;16.40;73.70;;;;;;5084309;28;20193;-78
2023/05/02 10:25:35;;;;;;;5.47;3.63;;;16.60;1.00;;;;;;5081326;28;20173;-80
2023/05/02 10:28:02;;;;;;;5.17;3.57;;;16.60;1.00;;;;;;5078254;28;20208;-80
2023/05/02 10:30:28;;;;;;;4.23;3.57;;;16.20;99.90;;;;;;5078255;28;20230;-80
2023/05/02 10:32:58;;;;;;;4.10;3.30;;;16.40;99.90;;;;;;5081276;28;20215;-80
2023/05/02 10:35:25;;;;;;;4.20;3.70;;;17.00;1.00;;;;;;5078010;28;20185;-79
2023/05/02 10:37:51;;;;;;;7.30;4.80;;;17.80;56.70;;;;;;5080122;28;20651;-81
2023/05/02 10:40:17;;;;;;;4.63;3.80;;;18.10;99.90;;;;;;5081080;28;20226;-83
2023/05/02 10:42:45;;;;;;;4.30;3.53;;;18.40;1.00;;;;;;5082005;28;20200;-81
2023/05/02 10:45:31;;;;;;;3.80;3.10;;;18.10;99.90;;;;;;5083253;28;20161;-83
2023/05/02 10:48:21;;;;;;;4.57;2.80;;;17.80;1.00;;;;;;5085336;28;20185;-83
2023/05/02 10:51:00;;;;;;;3.10;2.80;;;17.20;99.90;;;;;;5087238;28;20188;-79
2023/05/02 10:53:32;;;;;;;1.83;1.10;;;16.40;99.90;;;;;;5080865;28;20189;-80
2023/05/02 10:56:16;;;;;;;0.97;0.90;;;15.40;1.00;;;;;;5084676;28;20176;-80
2023/05/02 10:58:44;;;;;;;1.10;0.60;;;14.90;1.00;;;;;;5082682;28;20201;-80
2023/05/02 11:01:28;;;;;;;0.77;0.77;;;14.50;1.00;;;;;;5083957;28;20292;-81
2023/05/02 11:03:57;;;;;;;0.70;0.70;;;14.20;68.80;;;;;;5105295;22;20260;-80
2023/05/02 11:06:25;;;;;;;0.80;0.80;;;14.00;1.00;;;;;;5088105;28;20229;-80
2023/05/02 11:08:51;;;;;;;1.83;0.87;;;13.80;68.00;;;;;;5096814;28;20179;-80
2023/05/02 11:11:42;;;;;;;1.40;0.73;;;13.70;99.90;;;;;;5097904;28;20176;-81
2023/05/02 11:14:33;;;;;;;2.30;1.00;;;13.70;1.00;;;;;;5083222;28;20707;-80
2023/05/02 11:17:05;;;;;;;0.90;0.90;;;14.00;99.90;;;;;;5055765;28;20644;-80
2023/05/02 11:19:56;;;;;;;1.00;0.90;;;13.90;1.00;;;;;;5056920;28;20229;-80
2023/05/02 11:22:32;;;;;;;2.20;1.10;;;13.80;5.90;;;;;;5044746;28;20184;-80
2023/05/02 11:24:58;;;;;;;1.30;1.20;;;13.70;65.80;;;;;;5056228;28;20193;-81
2023/05/02 11:27:32;;;;;;;1.50;1.10;;;13.80;99.90;;;;;;5056516;28;20640;-80
2023/05/02 11:30:08;;;;;;;1.40;1.30;;;13.80;99.90;;;;;;5056051;28;20218;-80
2023/05/02 11:32:44;;;;;;;1.10;1.00;;;13.80;1.00;;;;;;5082258;28;20184;-80
2023/05/02 11:35:23;;;;;;;1.07;0.97;;;13.90;99.90;;;;;;5080077;28;20197;-80
2023/05/02 11:37:59;;;;;;;0.87;0.87;;;14.10;1.00;;;;;;5077010;28;20173;-80
2023/05/02 11:40:26;;;;;;;0.97;0.90;;;14.40;99.90;;;;;;5076998;28;20268;-80
2023/05/02 11:42:52;;;;;;;1.40;1.20;;;14.70;7.20;;;;;;5077509;28;20169;-82
2023/05/02 11:45:19;;;;;;;1.20;1.10;;;15.00;1.00;;;;;;5077278;28;20176;-81
2023/05/02 11:47:46;;;;;;;2.10;1.20;;;15.40;99.90;;;;;;5076902;28;20169;-80
2023/05/02 11:50:12;;;;;;;1.20;1.10;;;15.90;71.30;;;;;;5076445;28;20168;-80
2023/05/02 11:52:38;;;;;;;1.93;1.30;;;16.40;99.90;;;;;;5076795;28;20172;-80
2023/05/02 11:55:10;;;;;;;1.50;1.17;;;16.70;1.00;;;;;;5075848;28;20211;-81
2023/05/02 11:57:36;;;;;;;1.67;1.40;;;16.70;1.00;;;;;;5076995;28;20169;-80
2023/05/02 12:00:03;;;;;;;1.63;1.30;;;16.50;1.00;;;;;;5076576;28;20205;-82
2023/05/02 12:02:36;;;;;;;1.30;1.20;;;16.50;1.00;;;;;;5078306;28;20157;-80
2023/05/02 12:05:06;;;;;;;1.10;1.00;;;16.00;1.00;;;;;;5078317;28;20205;-80
2023/05/02 12:07:45;;;;;;;1.40;0.90;;;16.10;1.00;;;;;;5076518;28;20260;-80
2023/05/02 12:10:12;;;;;;;0.90;0.80;;;16.50;1.00;;;;;;5075438;28;20169;-81
2023/05/02 12:12:39;;;;;;;0.90;0.90;;;17.10;1.00;;;;;;5077504;28;20176;-81
2023/05/02 12:15:07;;;;;;;0.80;0.80;;;17.40;20.30;;;;;;5077223;28;20200;-81
2023/05/02 12:17:36;;;;;;;1.47;0.90;;;17.50;1.00;;;;;;5073166;28;20184;-81
2023/05/02 12:20:03;;;;;;;0.80;0.80;;;17.40;1.00;;;;;;5073104;28;20221;-81
2023/05/02 12:22:30;;;;;;;0.90;0.90;;;17.00;1.00;;;;;;5083475;28;20736;-82
2023/05/02 12:24:55;;;;;;;1.33;0.70;;;16.70;59.10;;;;;;5093260;28;20306;-81
2023/05/02 12:27:21;;;;;;;1.13;0.90;;;16.60;99.90;;;;;;5093206;28;20173;-81
2023/05/02 12:29:48;;;;;;;1.43;0.90;;;16.40;99.90;;;;;;5094337;28;20536;-81
2023/05/02 12:32:25;;;;;;;0.83;0.83;;;16.20;99.90;;;;;;5082548;28;20180;-81
2023/05/02 12:34:51;;;;;;;1.07;0.60;;;15.80;99.90;;;;;;5072559;28;20234;-81
2023/05/02 12:37:22;;;;;;;0.80;0.60;;;15.70;99.90;;;;;;5081896;28;20173;-81
2023/05/02 12:39:48;;;;;;;0.70;0.70;;;15.70;99.90;;;;;;5092509;28;20218;-81
2023/05/02 12:42:15;;;;;;;0.67;0.60;;;15.70;99.90;;;;;;5094189;28;20168;-81
2023/05/02 12:44:46;;;;;;;0.70;0.70;;;15.70;99.90;;;;;;5082750;28;20231;-81
2023/05/02 12:47:14;;;;;;;0.80;0.80;;;15.60;99.90;;;;;;5090780;28;20255;-83
2023/05/02 12:49:52;;;;;;;0.77;0.77;;;15.60;99.90;;;;;;5092546;28;20267;-81
2023/05/02 12:52:19;;;;;;;0.97;0.70;;;15.60;99.90;;;;;;5094154;28;20218;-81
2023/05/02 12:54:45;;;;;;;0.80;0.80;;;15.30;99.90;;;;;;5093564;28;20192;-81